sensor_id;sensor_type;location;lat;lon;timestamp;P1;durP1;ratioP1;P2;durP2;ratioP2
4889;SDS011;2459;42.268;23.112;2022-09-09T00:01:25;14.77;;;11.67;;
4889;SDS011;2459;42.268;23.112;2022-09-09T00:03:54;17.60;;;10.17;;
4889;SDS011;2459;42.268;23.112;2022-09-09T00:06:23;13.83;;;11.57;;
4889;SDS011;2459;42.268;23.112;2022-09-09T00:08:58;15.47;;;11.40;;
4889;SDS011;2459;42.268;23.112;2022-09-09T00:11:29;13.57;;;10.33;;
4889;SDS011;2459;42.268;23.112;2022-09-09T00:13:57;13.97;;;9.70;;
4889;SDS011;2459;42.268;23.112;2022-09-09T00:16:27;14.03;;;10.77;;
4889;SDS011;2459;42.268;23.112;2022-09-09T00:18:57;12.80;;;10.03;;
4889;SDS011;2459;42.268;23.112;2022-09-09T00:21:30;23.53;;;10.70;;
4889;SDS011;2459;42.268;23.112;2022-09-09T00:24:00;13.17;;;10.00;;
4889;SDS011;2459;42.268;23.112;2022-09-09T00:26:30;11.10;;;9.80;;
4889;SDS011;2459;42.268;23.112;2022-09-09T00:28:58;12.80;;;9.67;;
4889;SDS011;2459;42.268;23.112;2022-09-09T00:31:27;13.07;;;10.23;;
4889;SDS011;2459;42.268;23.112;2022-09-09T00:33:55;13.50;;;10.70;;
4889;SDS011;2459;42.268;23.112;2022-09-09T00:36:24;23.10;;;9.97;;
4889;SDS011;2459;42.268;23.112;2022-09-09T00:38:55;13.63;;;8.60;;
4889;SDS011;2459;42.268;23.112;2022-09-09T00:41:25;14.13;;;10.47;;
4889;SDS011;2459;42.268;23.112;2022-09-09T00:43:56;17.27;;;9.83;;
4889;SDS011;2459;42.268;23.112;2022-09-09T00:46:32;14.87;;;10.07;;
4889;SDS011;2459;42.268;23.112;2022-09-09T00:49:04;14.43;;;10.50;;
4889;SDS011;2459;42.268;23.112;2022-09-09T00:51:39;18.17;;;12.07;;
4889;SDS011;2459;42.268;23.112;2022-09-09T00:56:53;15.70;;;10.97;;
4889;SDS011;2459;42.268;23.112;2022-09-09T00:59:24;21.37;;;11.30;;
4889;SDS011;2459;42.268;23.112;2022-09-09T01:01:54;13.67;;;10.30;;
4889;SDS011;2459;42.268;23.112;2022-09-09T01:04:22;11.43;;;10.20;;
4889;SDS011;2459;42.268;23.112;2022-09-09T01:06:53;14.03;;;10.17;;
4889;SDS011;2459;42.268;23.112;2022-09-09T01:09:22;17.30;;;10.77;;
4889;SDS011;2459;42.268;23.112;2022-09-09T01:11:55;14.87;;;10.73;;
4889;SDS011;2459;42.268;23.112;2022-09-09T01:14:30;17.63;;;11.03;;
4889;SDS011;2459;42.268;23.112;2022-09-09T01:17:02;18.23;;;10.70;;
4889;SDS011;2459;42.268;23.112;2022-09-09T01:19:33;20.73;;;13.30;;
4889;SDS011;2459;42.268;23.112;2022-09-09T01:22:03;14.60;;;11.10;;
4889;SDS011;2459;42.268;23.112;2022-09-09T01:24:34;14.80;;;11.50;;
4889;SDS011;2459;42.268;23.112;2022-09-09T01:27:06;13.47;;;10.13;;
4889;SDS011;2459;42.268;23.112;2022-09-09T01:29:32;15.83;;;10.80;;
4889;SDS011;2459;42.268;23.112;2022-09-09T01:31:59;23.93;;;10.17;;
4889;SDS011;2459;42.268;23.112;2022-09-09T01:34:27;19.20;;;9.90;;
4889;SDS011;2459;42.268;23.112;2022-09-09T01:36:57;15.37;;;9.13;;
4889;SDS011;2459;42.268;23.112;2022-09-09T01:39:23;17.80;;;11.67;;
4889;SDS011;2459;42.268;23.112;2022-09-09T01:41:50;15.43;;;10.50;;
4889;SDS011;2459;42.268;23.112;2022-09-09T01:44:18;16.60;;;10.90;;
4889;SDS011;2459;42.268;23.112;2022-09-09T01:46:45;24.97;;;12.00;;
4889;SDS011;2459;42.268;23.112;2022-09-09T01:49:11;17.10;;;12.30;;
4889;SDS011;2459;42.268;23.112;2022-09-09T01:51:38;32.13;;;11.40;;
4889;SDS011;2459;42.268;23.112;2022-09-09T01:54:05;15.47;;;10.60;;
4889;SDS011;2459;42.268;23.112;2022-09-09T01:56:35;18.70;;;11.70;;
4889;SDS011;2459;42.268;23.112;2022-09-09T01:59:12;18.90;;;12.80;;
4889;SDS011;2459;42.268;23.112;2022-09-09T02:01:45;18.20;;;11.17;;
4889;SDS011;2459;42.268;23.112;2022-09-09T02:04:18;19.23;;;12.20;;
4889;SDS011;2459;42.268;23.112;2022-09-09T02:06:46;19.77;;;10.63;;
4889;SDS011;2459;42.268;23.112;2022-09-09T02:09:14;18.20;;;10.07;;
4889;SDS011;2459;42.268;23.112;2022-09-09T02:11:42;13.00;;;10.33;;
4889;SDS011;2459;42.268;23.112;2022-09-09T02:14:12;22.20;;;11.77;;
4889;SDS011;2459;42.268;23.112;2022-09-09T02:16:42;19.57;;;10.00;;
4889;SDS011;2459;42.268;23.112;2022-09-09T02:19:13;18.87;;;11.87;;
4889;SDS011;2459;42.268;23.112;2022-09-09T02:21:41;15.57;;;11.20;;
4889;SDS011;2459;42.268;23.112;2022-09-09T02:24:09;13.40;;;10.00;;
4889;SDS011;2459;42.268;23.112;2022-09-09T02:26:37;21.30;;;12.30;;
4889;SDS011;2459;42.268;23.112;2022-09-09T02:29:06;18.13;;;10.80;;
4889;SDS011;2459;42.268;23.112;2022-09-09T02:31:34;17.17;;;11.33;;
4889;SDS011;2459;42.268;23.112;2022-09-09T02:34:01;18.83;;;11.17;;
4889;SDS011;2459;42.268;23.112;2022-09-09T02:36:31;18.63;;;11.03;;
4889;SDS011;2459;42.268;23.112;2022-09-09T02:39:00;20.33;;;12.10;;
4889;SDS011;2459;42.268;23.112;2022-09-09T02:41:28;22.87;;;11.13;;
4889;SDS011;2459;42.268;23.112;2022-09-09T02:43:57;17.57;;;12.87;;
4889;SDS011;2459;42.268;23.112;2022-09-09T02:46:27;14.93;;;11.67;;
4889;SDS011;2459;42.268;23.112;2022-09-09T02:48:58;18.97;;;11.17;;
4889;SDS011;2459;42.268;23.112;2022-09-09T02:51:28;19.50;;;10.73;;
4889;SDS011;2459;42.268;23.112;2022-09-09T02:54:01;15.43;;;12.00;;
4889;SDS011;2459;42.268;23.112;2022-09-09T02:56:30;17.53;;;11.80;;
4889;SDS011;2459;42.268;23.112;2022-09-09T02:58:59;11.80;;;10.53;;
4889;SDS011;2459;42.268;23.112;2022-09-09T03:01:25;18.30;;;10.93;;
4889;SDS011;2459;42.268;23.112;2022-09-09T03:03:52;37.13;;;12.90;;
4889;SDS011;2459;42.268;23.112;2022-09-09T03:06:20;16.90;;;9.90;;
4889;SDS011;2459;42.268;23.112;2022-09-09T03:08:46;20.20;;;11.00;;
4889;SDS011;2459;42.268;23.112;2022-09-09T03:11:16;18.63;;;11.00;;
4889;SDS011;2459;42.268;23.112;2022-09-09T03:13:42;21.83;;;11.30;;
4889;SDS011;2459;42.268;23.112;2022-09-09T03:16:09;17.73;;;11.30;;
4889;SDS011;2459;42.268;23.112;2022-09-09T03:18:35;16.53;;;10.90;;
4889;SDS011;2459;42.268;23.112;2022-09-09T03:21:02;15.70;;;10.87;;
4889;SDS011;2459;42.268;23.112;2022-09-09T03:23:28;12.63;;;10.73;;
4889;SDS011;2459;42.268;23.112;2022-09-09T03:25:54;38.87;;;11.33;;
4889;SDS011;2459;42.268;23.112;2022-09-09T03:28:25;12.87;;;10.40;;
4889;SDS011;2459;42.268;23.112;2022-09-09T03:30:57;18.63;;;12.60;;
4889;SDS011;2459;42.268;23.112;2022-09-09T03:33:24;17.83;;;11.90;;
4889;SDS011;2459;42.268;23.112;2022-09-09T03:35:51;22.50;;;11.37;;
4889;SDS011;2459;42.268;23.112;2022-09-09T03:38:18;19.13;;;12.70;;
4889;SDS011;2459;42.268;23.112;2022-09-09T03:40:50;28.60;;;12.13;;
4889;SDS011;2459;42.268;23.112;2022-09-09T03:43:20;20.60;;;10.60;;
4889;SDS011;2459;42.268;23.112;2022-09-09T03:45:48;21.53;;;11.80;;
4889;SDS011;2459;42.268;23.112;2022-09-09T03:48:14;33.40;;;12.53;;
4889;SDS011;2459;42.268;23.112;2022-09-09T03:50:43;14.30;;;11.57;;
4889;SDS011;2459;42.268;23.112;2022-09-09T03:53:10;18.73;;;11.83;;
4889;SDS011;2459;42.268;23.112;2022-09-09T03:55:36;22.33;;;10.30;;
4889;SDS011;2459;42.268;23.112;2022-09-09T03:58:03;20.53;;;12.70;;
4889;SDS011;2459;42.268;23.112;2022-09-09T04:00:29;17.43;;;12.23;;
4889;SDS011;2459;42.268;23.112;2022-09-09T04:02:57;22.13;;;12.40;;
4889;SDS011;2459;42.268;23.112;2022-09-09T04:05:24;20.10;;;13.27;;
4889;SDS011;2459;42.268;23.112;2022-09-09T04:07:50;20.43;;;12.67;;
4889;SDS011;2459;42.268;23.112;2022-09-09T04:10:17;20.20;;;11.60;;
4889;SDS011;2459;42.268;23.112;2022-09-09T04:12:44;27.03;;;12.90;;
4889;SDS011;2459;42.268;23.112;2022-09-09T04:15:11;18.70;;;11.40;;
4889;SDS011;2459;42.268;23.112;2022-09-09T04:17:37;23.17;;;12.57;;
4889;SDS011;2459;42.268;23.112;2022-09-09T04:20:05;17.90;;;12.00;;
4889;SDS011;2459;42.268;23.112;2022-09-09T04:22:36;19.67;;;12.60;;
4889;SDS011;2459;42.268;23.112;2022-09-09T04:25:04;20.00;;;12.63;;
4889;SDS011;2459;42.268;23.112;2022-09-09T04:27:30;18.73;;;12.70;;
4889;SDS011;2459;42.268;23.112;2022-09-09T04:29:57;19.93;;;12.83;;
4889;SDS011;2459;42.268;23.112;2022-09-09T04:32:24;22.53;;;13.43;;
4889;SDS011;2459;42.268;23.112;2022-09-09T04:34:52;21.07;;;13.70;;
4889;SDS011;2459;42.268;23.112;2022-09-09T04:37:20;54.40;;;14.10;;
4889;SDS011;2459;42.268;23.112;2022-09-09T04:39:46;15.63;;;12.17;;
4889;SDS011;2459;42.268;23.112;2022-09-09T04:42:12;30.73;;;12.23;;
4889;SDS011;2459;42.268;23.112;2022-09-09T04:44:39;17.87;;;12.17;;
4889;SDS011;2459;42.268;23.112;2022-09-09T04:47:06;18.90;;;13.77;;
4889;SDS011;2459;42.268;23.112;2022-09-09T04:49:32;25.17;;;11.70;;
4889;SDS011;2459;42.268;23.112;2022-09-09T04:51:59;17.17;;;11.00;;
4889;SDS011;2459;42.268;23.112;2022-09-09T04:54:27;18.60;;;10.73;;
4889;SDS011;2459;42.268;23.112;2022-09-09T04:56:54;16.33;;;11.73;;
4889;SDS011;2459;42.268;23.112;2022-09-09T04:59:21;16.53;;;10.90;;
4889;SDS011;2459;42.268;23.112;2022-09-09T05:01:47;19.70;;;11.57;;
4889;SDS011;2459;42.268;23.112;2022-09-09T05:04:15;17.43;;;10.17;;
4889;SDS011;2459;42.268;23.112;2022-09-09T05:06:41;14.97;;;9.97;;
4889;SDS011;2459;42.268;23.112;2022-09-09T05:09:08;16.40;;;10.63;;
4889;SDS011;2459;42.268;23.112;2022-09-09T05:11:36;17.50;;;11.10;;
4889;SDS011;2459;42.268;23.112;2022-09-09T05:14:03;12.10;;;10.10;;
4889;SDS011;2459;42.268;23.112;2022-09-09T05:16:30;20.83;;;10.63;;
4889;SDS011;2459;42.268;23.112;2022-09-09T05:18:56;13.67;;;10.23;;
4889;SDS011;2459;42.268;23.112;2022-09-09T05:21:24;10.10;;;8.40;;
4889;SDS011;2459;42.268;23.112;2022-09-09T05:23:51;11.17;;;8.70;;
4889;SDS011;2459;42.268;23.112;2022-09-09T05:26:21;23.00;;;8.87;;
4889;SDS011;2459;42.268;23.112;2022-09-09T05:28:49;12.90;;;8.20;;
4889;SDS011;2459;42.268;23.112;2022-09-09T05:31:16;12.40;;;7.30;;
4889;SDS011;2459;42.268;23.112;2022-09-09T05:33:43;9.40;;;8.07;;
4889;SDS011;2459;42.268;23.112;2022-09-09T05:36:12;12.57;;;9.00;;
4889;SDS011;2459;42.268;23.112;2022-09-09T05:38:39;14.50;;;8.97;;
4889;SDS011;2459;42.268;23.112;2022-09-09T05:41:06;9.73;;;8.07;;
4889;SDS011;2459;42.268;23.112;2022-09-09T05:43:33;13.63;;;7.83;;
4889;SDS011;2459;42.268;23.112;2022-09-09T05:46:02;10.60;;;7.57;;
4889;SDS011;2459;42.268;23.112;2022-09-09T05:48:30;16.00;;;7.70;;
4889;SDS011;2459;42.268;23.112;2022-09-09T05:50:57;7.93;;;7.10;;
4889;SDS011;2459;42.268;23.112;2022-09-09T05:53:26;13.10;;;8.00;;
4889;SDS011;2459;42.268;23.112;2022-09-09T05:56:02;11.30;;;7.37;;
4889;SDS011;2459;42.268;23.112;2022-09-09T05:58:29;12.40;;;7.40;;
4889;SDS011;2459;42.268;23.112;2022-09-09T06:01:05;9.37;;;7.00;;
4889;SDS011;2459;42.268;23.112;2022-09-09T06:03:32;9.50;;;6.50;;
4889;SDS011;2459;42.268;23.112;2022-09-09T06:05:59;12.57;;;6.90;;
4889;SDS011;2459;42.268;23.112;2022-09-09T06:08:26;7.67;;;6.57;;
4889;SDS011;2459;42.268;23.112;2022-09-09T06:10:52;9.73;;;6.83;;
4889;SDS011;2459;42.268;23.112;2022-09-09T06:13:19;10.90;;;7.03;;
4889;SDS011;2459;42.268;23.112;2022-09-09T06:15:49;10.43;;;5.73;;
4889;SDS011;2459;42.268;23.112;2022-09-09T06:18:17;9.57;;;5.75;;
4889;SDS011;2459;42.268;23.112;2022-09-09T06:20:52;7.97;;;6.07;;
4889;SDS011;2459;42.268;23.112;2022-09-09T06:23:19;11.50;;;6.22;;
4889;SDS011;2459;42.268;23.112;2022-09-09T06:25:46;7.47;;;6.10;;
4889;SDS011;2459;42.268;23.112;2022-09-09T06:28:17;8.02;;;5.97;;
4889;SDS011;2459;42.268;23.112;2022-09-09T06:30:45;14.13;;;5.82;;
4889;SDS011;2459;42.268;23.112;2022-09-09T06:33:12;9.82;;;5.57;;
4889;SDS011;2459;42.268;23.112;2022-09-09T06:35:40;7.15;;;5.45;;
4889;SDS011;2459;42.268;23.112;2022-09-09T06:38:08;6.13;;;5.55;;
4889;SDS011;2459;42.268;23.112;2022-09-09T06:40:35;7.45;;;5.47;;
4889;SDS011;2459;42.268;23.112;2022-09-09T06:43:02;14.90;;;6.38;;
4889;SDS011;2459;42.268;23.112;2022-09-09T06:45:28;5.07;;;4.53;;
4889;SDS011;2459;42.268;23.112;2022-09-09T06:47:56;7.78;;;5.43;;
4889;SDS011;2459;42.268;23.112;2022-09-09T06:50:22;5.65;;;5.03;;
4889;SDS011;2459;42.268;23.112;2022-09-09T06:52:50;5.45;;;4.90;;
4889;SDS011;2459;42.268;23.112;2022-09-09T06:55:17;13.63;;;5.10;;
4889;SDS011;2459;42.268;23.112;2022-09-09T06:57:44;6.93;;;5.20;;
4889;SDS011;2459;42.268;23.112;2022-09-09T07:00:11;4.85;;;4.45;;
4889;SDS011;2459;42.268;23.112;2022-09-09T07:02:39;14.05;;;4.97;;
4889;SDS011;2459;42.268;23.112;2022-09-09T07:05:06;5.50;;;5.00;;
4889;SDS011;2459;42.268;23.112;2022-09-09T07:07:33;7.85;;;4.47;;
4889;SDS011;2459;42.268;23.112;2022-09-09T07:10:01;4.97;;;4.57;;
4889;SDS011;2459;42.268;23.112;2022-09-09T07:12:29;5.88;;;4.03;;
4889;SDS011;2459;42.268;23.112;2022-09-09T07:14:55;5.20;;;4.40;;
4889;SDS011;2459;42.268;23.112;2022-09-09T07:17:22;4.80;;;4.40;;
4889;SDS011;2459;42.268;23.112;2022-09-09T07:19:48;9.23;;;4.53;;
4889;SDS011;2459;42.268;23.112;2022-09-09T07:22:15;7.10;;;5.22;;
4889;SDS011;2459;42.268;23.112;2022-09-09T07:24:41;10.98;;;4.60;;
4889;SDS011;2459;42.268;23.112;2022-09-09T07:27:11;5.55;;;5.15;;
4889;SDS011;2459;42.268;23.112;2022-09-09T07:29:38;8.20;;;5.55;;
4889;SDS011;2459;42.268;23.112;2022-09-09T07:32:04;5.82;;;4.22;;
4889;SDS011;2459;42.268;23.112;2022-09-09T07:34:31;6.15;;;4.40;;
4889;SDS011;2459;42.268;23.112;2022-09-09T07:36:57;4.85;;;4.35;;
4889;SDS011;2459;42.268;23.112;2022-09-09T07:39:24;5.85;;;4.22;;
4889;SDS011;2459;42.268;23.112;2022-09-09T07:41:50;15.50;;;6.18;;
4889;SDS011;2459;42.268;23.112;2022-09-09T07:44:18;6.20;;;5.57;;
4889;SDS011;2459;42.268;23.112;2022-09-09T07:46:46;6.78;;;5.07;;
4889;SDS011;2459;42.268;23.112;2022-09-09T07:49:13;5.55;;;4.95;;
4889;SDS011;2459;42.268;23.112;2022-09-09T07:51:40;9.80;;;5.82;;
4889;SDS011;2459;42.268;23.112;2022-09-09T07:54:08;10.30;;;6.05;;
4889;SDS011;2459;42.268;23.112;2022-09-09T07:56:35;5.97;;;5.15;;
4889;SDS011;2459;42.268;23.112;2022-09-09T07:59:02;9.18;;;5.60;;
4889;SDS011;2459;42.268;23.112;2022-09-09T08:01:33;6.53;;;4.53;;
4889;SDS011;2459;42.268;23.112;2022-09-09T08:04:03;5.88;;;3.80;;
4889;SDS011;2459;42.268;23.112;2022-09-09T08:06:31;5.60;;;3.95;;
4889;SDS011;2459;42.268;23.112;2022-09-09T08:08:58;10.90;;;5.00;;
4889;SDS011;2459;42.268;23.112;2022-09-09T08:11:25;9.77;;;5.03;;
4889;SDS011;2459;42.268;23.112;2022-09-09T08:13:53;8.77;;;5.57;;
4889;SDS011;2459;42.268;23.112;2022-09-09T08:16:20;5.15;;;4.68;;
4889;SDS011;2459;42.268;23.112;2022-09-09T08:18:49;4.55;;;4.15;;
4889;SDS011;2459;42.268;23.112;2022-09-09T08:21:17;4.88;;;4.47;;
4889;SDS011;2459;42.268;23.112;2022-09-09T08:23:44;17.25;;;6.35;;
4889;SDS011;2459;42.268;23.112;2022-09-09T08:26:11;10.05;;;7.18;;
4889;SDS011;2459;42.268;23.112;2022-09-09T08:28:38;12.75;;;6.38;;
4889;SDS011;2459;42.268;23.112;2022-09-09T08:31:06;7.32;;;4.60;;
4889;SDS011;2459;42.268;23.112;2022-09-09T08:33:33;9.13;;;5.80;;
4889;SDS011;2459;42.268;23.112;2022-09-09T08:36:01;9.48;;;5.22;;
4889;SDS011;2459;42.268;23.112;2022-09-09T08:38:27;10.63;;;5.55;;
4889;SDS011;2459;42.268;23.112;2022-09-09T08:40:54;6.80;;;4.75;;
4889;SDS011;2459;42.268;23.112;2022-09-09T08:43:26;5.35;;;4.25;;
4889;SDS011;2459;42.268;23.112;2022-09-09T08:45:55;5.95;;;5.35;;
4889;SDS011;2459;42.268;23.112;2022-09-09T08:48:30;6.32;;;4.38;;
4889;SDS011;2459;42.268;23.112;2022-09-09T08:50:58;5.70;;;4.38;;
4889;SDS011;2459;42.268;23.112;2022-09-09T08:53:30;5.80;;;4.20;;
4889;SDS011;2459;42.268;23.112;2022-09-09T08:56:07;10.05;;;5.68;;
4889;SDS011;2459;42.268;23.112;2022-09-09T08:58:39;21.45;;;4.40;;
4889;SDS011;2459;42.268;23.112;2022-09-09T09:01:14;7.65;;;4.50;;
4889;SDS011;2459;42.268;23.112;2022-09-09T09:03:47;5.07;;;4.60;;
4889;SDS011;2459;42.268;23.112;2022-09-09T09:06:19;8.00;;;5.13;;
4889;SDS011;2459;42.268;23.112;2022-09-09T09:08:51;8.15;;;4.38;;
4889;SDS011;2459;42.268;23.112;2022-09-09T09:11:20;5.25;;;4.72;;
4889;SDS011;2459;42.268;23.112;2022-09-09T09:13:48;12.00;;;5.20;;
4889;SDS011;2459;42.268;23.112;2022-09-09T09:16:19;5.85;;;5.35;;
4889;SDS011;2459;42.268;23.112;2022-09-09T09:18:48;8.65;;;4.40;;
4889;SDS011;2459;42.268;23.112;2022-09-09T09:21:16;5.80;;;4.72;;
4889;SDS011;2459;42.268;23.112;2022-09-09T09:23:48;8.40;;;4.47;;
4889;SDS011;2459;42.268;23.112;2022-09-09T09:26:19;5.22;;;4.72;;
4889;SDS011;2459;42.268;23.112;2022-09-09T09:28:47;8.90;;;5.72;;
4889;SDS011;2459;42.268;23.112;2022-09-09T09:31:13;5.38;;;4.85;;
4889;SDS011;2459;42.268;23.112;2022-09-09T09:33:43;6.05;;;5.55;;
4889;SDS011;2459;42.268;23.112;2022-09-09T09:36:11;7.70;;;5.22;;
4889;SDS011;2459;42.268;23.112;2022-09-09T09:38:40;5.57;;;4.90;;
4889;SDS011;2459;42.268;23.112;2022-09-09T09:41:18;6.57;;;5.95;;
4889;SDS011;2459;42.268;23.112;2022-09-09T09:43:55;10.18;;;5.30;;
4889;SDS011;2459;42.268;23.112;2022-09-09T09:46:22;9.50;;;5.40;;
4889;SDS011;2459;42.268;23.112;2022-09-09T09:48:56;6.53;;;5.63;;
4889;SDS011;2459;42.268;23.112;2022-09-09T09:51:22;9.88;;;5.32;;
4889;SDS011;2459;42.268;23.112;2022-09-09T09:53:49;6.97;;;5.97;;
4889;SDS011;2459;42.268;23.112;2022-09-09T09:56:25;7.72;;;6.03;;
4889;SDS011;2459;42.268;23.112;2022-09-09T09:58:52;7.18;;;4.93;;
4889;SDS011;2459;42.268;23.112;2022-09-09T10:01:20;8.50;;;5.80;;
4889;SDS011;2459;42.268;23.112;2022-09-09T10:03:50;9.95;;;5.80;;
4889;SDS011;2459;42.268;23.112;2022-09-09T10:06:17;8.00;;;5.55;;
4889;SDS011;2459;42.268;23.112;2022-09-09T10:08:44;7.32;;;5.57;;
4889;SDS011;2459;42.268;23.112;2022-09-09T10:14:00;25.40;;;15.15;;
4889;SDS011;2459;42.268;23.112;2022-09-09T10:16:31;6.90;;;6.05;;
4889;SDS011;2459;42.268;23.112;2022-09-09T10:19:01;9.82;;;5.10;;
4889;SDS011;2459;42.268;23.112;2022-09-09T10:21:37;5.32;;;4.85;;
4889;SDS011;2459;42.268;23.112;2022-09-09T10:24:15;6.18;;;5.57;;
4889;SDS011;2459;42.268;23.112;2022-09-09T10:26:48;6.28;;;5.28;;
4889;SDS011;2459;42.268;23.112;2022-09-09T10:29:28;12.23;;;6.90;;
4889;SDS011;2459;42.268;23.112;2022-09-09T10:32:02;9.25;;;5.18;;
4889;SDS011;2459;42.268;23.112;2022-09-09T10:34:36;8.25;;;5.95;;
4889;SDS011;2459;42.268;23.112;2022-09-09T10:37:11;7.07;;;4.97;;
4889;SDS011;2459;42.268;23.112;2022-09-09T10:39:47;5.60;;;4.35;;
4889;SDS011;2459;42.268;23.112;2022-09-09T10:42:17;4.25;;;3.85;;
4889;SDS011;2459;42.268;23.112;2022-09-09T10:44:51;6.88;;;4.97;;
4889;SDS011;2459;42.268;23.112;2022-09-09T10:47:37;10.75;;;5.25;;
4889;SDS011;2459;42.268;23.112;2022-09-09T10:50:18;5.40;;;4.53;;
4889;SDS011;2459;42.268;23.112;2022-09-09T10:52:53;6.97;;;4.80;;
4889;SDS011;2459;42.268;23.112;2022-09-09T10:55:23;8.25;;;5.22;;
4889;SDS011;2459;42.268;23.112;2022-09-09T10:57:52;6.22;;;5.10;;
4889;SDS011;2459;42.268;23.112;2022-09-09T11:00:22;9.02;;;5.85;;
4889;SDS011;2459;42.268;23.112;2022-09-09T11:02:50;8.38;;;5.57;;
4889;SDS011;2459;42.268;23.112;2022-09-09T11:05:20;6.45;;;4.53;;
4889;SDS011;2459;42.268;23.112;2022-09-09T11:07:48;11.15;;;8.98;;
4889;SDS011;2459;42.268;23.112;2022-09-09T11:10:19;9.00;;;6.43;;
4889;SDS011;2459;42.268;23.112;2022-09-09T11:12:50;28.23;;;12.32;;
4889;SDS011;2459;42.268;23.112;2022-09-09T11:15:20;8.30;;;5.30;;
4889;SDS011;2459;42.268;23.112;2022-09-09T11:17:50;7.80;;;6.35;;
4889;SDS011;2459;42.268;23.112;2022-09-09T11:20:19;5.90;;;5.10;;
4889;SDS011;2459;42.268;23.112;2022-09-09T11:22:47;10.05;;;5.07;;
4889;SDS011;2459;42.268;23.112;2022-09-09T11:25:25;10.40;;;5.70;;
4889;SDS011;2459;42.268;23.112;2022-09-09T11:27:57;8.38;;;5.65;;
4889;SDS011;2459;42.268;23.112;2022-09-09T11:30:29;8.40;;;5.28;;
4889;SDS011;2459;42.268;23.112;2022-09-09T11:33:02;35.25;;;6.15;;
4889;SDS011;2459;42.268;23.112;2022-09-09T11:35:34;7.78;;;6.07;;
4889;SDS011;2459;42.268;23.112;2022-09-09T11:38:15;8.75;;;5.38;;
4889;SDS011;2459;42.268;23.112;2022-09-09T11:40:44;12.45;;;6.53;;
4889;SDS011;2459;42.268;23.112;2022-09-09T11:43:12;11.90;;;8.73;;
4889;SDS011;2459;42.268;23.112;2022-09-09T11:45:39;7.95;;;6.30;;
4889;SDS011;2459;42.268;23.112;2022-09-09T11:48:21;16.45;;;6.45;;
4889;SDS011;2459;42.268;23.112;2022-09-09T11:50:57;11.88;;;6.97;;
4889;SDS011;2459;42.268;23.112;2022-09-09T11:53:24;18.60;;;7.60;;
4889;SDS011;2459;42.268;23.112;2022-09-09T11:56:03;19.50;;;8.25;;
4889;SDS011;2459;42.268;23.112;2022-09-09T11:58:32;14.45;;;7.30;;
4889;SDS011;2459;42.268;23.112;2022-09-09T12:01:00;18.25;;;6.85;;
4889;SDS011;2459;42.268;23.112;2022-09-09T12:03:31;28.98;;;8.90;;
4889;SDS011;2459;42.268;23.112;2022-09-09T12:05:59;14.60;;;8.10;;
4889;SDS011;2459;42.268;23.112;2022-09-09T12:08:34;10.13;;;6.10;;
4889;SDS011;2459;42.268;23.112;2022-09-09T12:11:03;26.27;;;6.75;;
4889;SDS011;2459;42.268;23.112;2022-09-09T12:13:30;26.63;;;8.20;;
4889;SDS011;2459;42.268;23.112;2022-09-09T12:15:57;21.52;;;7.22;;
4889;SDS011;2459;42.268;23.112;2022-09-09T12:18:25;28.83;;;8.38;;
4889;SDS011;2459;42.268;23.112;2022-09-09T12:20:54;16.45;;;7.30;;
4889;SDS011;2459;42.268;23.112;2022-09-09T12:23:28;52.97;;;7.82;;
4889;SDS011;2459;42.268;23.112;2022-09-09T12:26:03;9.00;;;6.13;;
4889;SDS011;2459;42.268;23.112;2022-09-09T12:28:39;7.90;;;5.80;;
4889;SDS011;2459;42.268;23.112;2022-09-09T12:31:08;17.02;;;5.78;;
4889;SDS011;2459;42.268;23.112;2022-09-09T12:33:36;6.47;;;5.85;;
4889;SDS011;2459;42.268;23.112;2022-09-09T12:36:04;9.98;;;7.18;;
4889;SDS011;2459;42.268;23.112;2022-09-09T12:38:32;7.72;;;6.28;;
4889;SDS011;2459;42.268;23.112;2022-09-09T12:41:00;7.70;;;5.68;;
4889;SDS011;2459;42.268;23.112;2022-09-09T12:43:29;13.25;;;5.75;;
4889;SDS011;2459;42.268;23.112;2022-09-09T12:45:56;5.80;;;5.22;;
4889;SDS011;2459;42.268;23.112;2022-09-09T12:48:25;12.60;;;7.50;;
4889;SDS011;2459;42.268;23.112;2022-09-09T12:50:53;12.93;;;5.50;;
4889;SDS011;2459;42.268;23.112;2022-09-09T12:53:22;10.23;;;7.05;;
4889;SDS011;2459;42.268;23.112;2022-09-09T12:55:49;5.97;;;5.25;;
4889;SDS011;2459;42.268;23.112;2022-09-09T12:58:17;6.38;;;5.78;;
4889;SDS011;2459;42.268;23.112;2022-09-09T13:00:50;11.35;;;7.65;;
4889;SDS011;2459;42.268;23.112;2022-09-09T13:03:17;8.67;;;5.97;;
4889;SDS011;2459;42.268;23.112;2022-09-09T13:05:46;9.68;;;7.22;;
4889;SDS011;2459;42.268;23.112;2022-09-09T13:08:14;6.53;;;5.83;;
4889;SDS011;2459;42.268;23.112;2022-09-09T13:10:46;29.37;;;6.50;;
4889;SDS011;2459;42.268;23.112;2022-09-09T13:13:13;8.83;;;5.50;;
4889;SDS011;2459;42.268;23.112;2022-09-09T13:15:47;12.03;;;5.80;;
4889;SDS011;2459;42.268;23.112;2022-09-09T13:18:16;13.67;;;6.90;;
4889;SDS011;2459;42.268;23.112;2022-09-09T13:20:45;9.90;;;6.50;;
4889;SDS011;2459;42.268;23.112;2022-09-09T13:23:12;7.10;;;6.43;;
4889;SDS011;2459;42.268;23.112;2022-09-09T13:25:39;14.30;;;6.37;;
4889;SDS011;2459;42.268;23.112;2022-09-09T13:28:18;27.63;;;15.97;;
4889;SDS011;2459;42.268;23.112;2022-09-09T13:30:54;9.63;;;6.90;;
4889;SDS011;2459;42.268;23.112;2022-09-09T13:33:28;9.43;;;7.67;;
4889;SDS011;2459;42.268;23.112;2022-09-09T13:35:56;8.73;;;7.83;;
4889;SDS011;2459;42.268;23.112;2022-09-09T13:38:27;44.73;;;21.93;;
4889;SDS011;2459;42.268;23.112;2022-09-09T13:40:55;9.43;;;7.20;;
4889;SDS011;2459;42.268;23.112;2022-09-09T13:43:23;13.43;;;10.20;;
4889;SDS011;2459;42.268;23.112;2022-09-09T13:45:54;12.13;;;7.63;;
4889;SDS011;2459;42.268;23.112;2022-09-09T13:48:21;9.87;;;6.83;;
4889;SDS011;2459;42.268;23.112;2022-09-09T13:50:54;17.63;;;6.80;;
4889;SDS011;2459;42.268;23.112;2022-09-09T13:53:21;9.80;;;7.93;;
4889;SDS011;2459;42.268;23.112;2022-09-09T13:55:48;12.30;;;8.07;;
4889;SDS011;2459;42.268;23.112;2022-09-09T13:58:15;10.20;;;7.97;;
4889;SDS011;2459;42.268;23.112;2022-09-09T14:00:43;13.47;;;8.53;;
4889;SDS011;2459;42.268;23.112;2022-09-09T14:03:10;11.00;;;8.93;;
4889;SDS011;2459;42.268;23.112;2022-09-09T14:05:37;10.75;;;7.13;;
4889;SDS011;2459;42.268;23.112;2022-09-09T14:08:05;11.90;;;7.97;;
4889;SDS011;2459;42.268;23.112;2022-09-09T14:10:32;14.68;;;6.38;;
4889;SDS011;2459;42.268;23.112;2022-09-09T14:13:00;53.72;;;20.60;;
4889;SDS011;2459;42.268;23.112;2022-09-09T14:15:27;10.27;;;5.88;;
4889;SDS011;2459;42.268;23.112;2022-09-09T14:17:54;9.43;;;6.45;;
4889;SDS011;2459;42.268;23.112;2022-09-09T14:20:20;8.65;;;6.05;;
4889;SDS011;2459;42.268;23.112;2022-09-09T14:22:47;7.60;;;6.68;;
4889;SDS011;2459;42.268;23.112;2022-09-09T14:25:14;13.07;;;9.27;;
4889;SDS011;2459;42.268;23.112;2022-09-09T14:27:41;12.55;;;8.63;;
4889;SDS011;2459;42.268;23.112;2022-09-09T14:30:08;8.98;;;5.50;;
4889;SDS011;2459;42.268;23.112;2022-09-09T14:32:35;24.55;;;6.40;;
4889;SDS011;2459;42.268;23.112;2022-09-09T14:35:02;14.63;;;6.63;;
4889;SDS011;2459;42.268;23.112;2022-09-09T14:37:28;9.27;;;6.55;;
4889;SDS011;2459;42.268;23.112;2022-09-09T14:39:56;14.93;;;7.47;;
4889;SDS011;2459;42.268;23.112;2022-09-09T14:42:24;23.52;;;7.65;;
4889;SDS011;2459;42.268;23.112;2022-09-09T14:44:51;18.15;;;6.40;;
4889;SDS011;2459;42.268;23.112;2022-09-09T14:47:17;17.10;;;7.28;;
4889;SDS011;2459;42.268;23.112;2022-09-09T14:49:44;15.32;;;7.03;;
4889;SDS011;2459;42.268;23.112;2022-09-09T14:55:14;17.93;;;7.30;;
4889;SDS011;2459;42.268;23.112;2022-09-09T14:57:42;23.47;;;8.57;;
4889;SDS011;2459;42.268;23.112;2022-09-09T15:00:09;7.83;;;6.33;;
4889;SDS011;2459;42.268;23.112;2022-09-09T15:02:36;13.87;;;6.57;;
4889;SDS011;2459;42.268;23.112;2022-09-09T15:05:04;8.17;;;5.07;;
4889;SDS011;2459;42.268;23.112;2022-09-09T15:07:30;17.67;;;6.90;;